Saco, Montana
Current Conditions -  °F | °C
As of 2:53 AM on Tuesday 21 Oct 2014 (Local Time) from KGGW Reporting Station
Clear Clear  
Wind Chill: 44°   Ceiling: Unl
Heat Index: 49°   Visibility: 10mi
Dew Point: 37°   Wind: 12mph
Humidity: 64%   Direction: 110°ESE
Pressure: 29.7"   Gusts: NA
Location:  48.46°N, 107.34°W
Report Text: KGGW 210853Z AUTO 11010KT 10SM CLR 09/03 A2970 RMK AO2 SLP057 T00940028 58006
Loading
Personal Weather Stations






























Interactive Weather Map
Tropical Storm Tracking
New forecast layout! Learn more

10-Day Weather Forecast

Advertisements
Track Severe Weather on mobile